sensor_id;sensor_type;location;lat;lon;timestamp;P1;durP1;ratioP1;P2;durP2;ratioP2
76377;SDS011;65200;49.500;8.654;2023-07-24T00:01:05;7.82;;;4.35;;
76377;SDS011;65200;49.500;8.654;2023-07-24T00:03:31;5.38;;;3.60;;
76377;SDS011;65200;49.500;8.654;2023-07-24T00:05:58;6.35;;;4.10;;
76377;SDS011;65200;49.500;8.654;2023-07-24T00:08:26;6.88;;;4.65;;
76377;SDS011;65200;49.500;8.654;2023-07-24T00:10:53;7.80;;;4.82;;
76377;SDS011;65200;49.500;8.654;2023-07-24T00:13:19;6.32;;;4.38;;
76377;SDS011;65200;49.500;8.654;2023-07-24T00:15:46;7.75;;;4.03;;
76377;SDS011;65200;49.500;8.654;2023-07-24T00:18:12;7.20;;;4.57;;
76377;SDS011;65200;49.500;8.654;2023-07-24T00:20:39;6.35;;;4.07;;
76377;SDS011;65200;49.500;8.654;2023-07-24T00:23:05;6.70;;;4.72;;
76377;SDS011;65200;49.500;8.654;2023-07-24T00:25:33;6.95;;;4.88;;
76377;SDS011;65200;49.500;8.654;2023-07-24T00:27:59;7.72;;;5.28;;
76377;SDS011;65200;49.500;8.654;2023-07-24T00:30:26;8.48;;;5.18;;
76377;SDS011;65200;49.500;8.654;2023-07-24T00:32:52;6.60;;;4.25;;
76377;SDS011;65200;49.500;8.654;2023-07-24T00:35:19;6.63;;;5.07;;
76377;SDS011;65200;49.500;8.654;2023-07-24T00:37:45;6.47;;;4.32;;
76377;SDS011;65200;49.500;8.654;2023-07-24T00:40:12;6.75;;;5.30;;
76377;SDS011;65200;49.500;8.654;2023-07-24T00:42:40;7.32;;;4.30;;
76377;SDS011;65200;49.500;8.654;2023-07-24T00:45:07;6.97;;;4.57;;
76377;SDS011;65200;49.500;8.654;2023-07-24T00:50:00;6.68;;;4.32;;
76377;SDS011;65200;49.500;8.654;2023-07-24T00:52:27;7.93;;;5.00;;
76377;SDS011;65200;49.500;8.654;2023-07-24T00:54:53;9.27;;;5.22;;
76377;SDS011;65200;49.500;8.654;2023-07-24T00:57:20;9.98;;;4.95;;
76377;SDS011;65200;49.500;8.654;2023-07-24T00:59:48;7.00;;;4.72;;
76377;SDS011;65200;49.500;8.654;2023-07-24T01:02:14;6.88;;;4.78;;
76377;SDS011;65200;49.500;8.654;2023-07-24T01:04:41;7.25;;;4.88;;
76377;SDS011;65200;49.500;8.654;2023-07-24T01:07:07;7.00;;;5.35;;
76377;SDS011;65200;49.500;8.654;2023-07-24T01:09:34;8.40;;;5.18;;
76377;SDS011;65200;49.500;8.654;2023-07-24T01:12:02;9.40;;;5.47;;
76377;SDS011;65200;49.500;8.654;2023-07-24T01:14:40;9.95;;;5.35;;
76377;SDS011;65200;49.500;8.654;2023-07-24T01:17:12;7.32;;;4.55;;
76377;SDS011;65200;49.500;8.654;2023-07-24T01:19:42;7.03;;;5.32;;
76377;SDS011;65200;49.500;8.654;2023-07-24T01:22:14;9.15;;;5.90;;
76377;SDS011;65200;49.500;8.654;2023-07-24T01:27:34;9.38;;;4.95;;
76377;SDS011;65200;49.500;8.654;2023-07-24T01:30:00;7.25;;;4.45;;
76377;SDS011;65200;49.500;8.654;2023-07-24T01:32:27;7.43;;;5.22;;
76377;SDS011;65200;49.500;8.654;2023-07-24T01:34:53;8.50;;;5.63;;
76377;SDS011;65200;49.500;8.654;2023-07-24T01:37:20;8.38;;;5.38;;
76377;SDS011;65200;49.500;8.654;2023-07-24T01:39:48;7.38;;;5.25;;
76377;SDS011;65200;49.500;8.654;2023-07-24T01:42:16;8.25;;;5.45;;
76377;SDS011;65200;49.500;8.654;2023-07-24T01:44:44;8.85;;;5.50;;
76377;SDS011;65200;49.500;8.654;2023-07-24T01:47:10;8.98;;;4.78;;
76377;SDS011;65200;49.500;8.654;2023-07-24T01:49:37;6.88;;;4.70;;
76377;SDS011;65200;49.500;8.654;2023-07-24T01:52:04;6.82;;;4.45;;
76377;SDS011;65200;49.500;8.654;2023-07-24T01:54:32;8.48;;;5.40;;
76377;SDS011;65200;49.500;8.654;2023-07-24T01:56:58;6.63;;;4.53;;
76377;SDS011;65200;49.500;8.654;2023-07-24T01:59:24;9.55;;;5.28;;
76377;SDS011;65200;49.500;8.654;2023-07-24T02:01:52;8.07;;;5.40;;
76377;SDS011;65200;49.500;8.654;2023-07-24T02:04:18;6.85;;;5.25;;
76377;SDS011;65200;49.500;8.654;2023-07-24T02:06:47;7.25;;;4.85;;
76377;SDS011;65200;49.500;8.654;2023-07-24T02:09:13;8.23;;;5.10;;
76377;SDS011;65200;49.500;8.654;2023-07-24T02:11:40;7.70;;;5.63;;
76377;SDS011;65200;49.500;8.654;2023-07-24T02:14:06;7.03;;;5.28;;
76377;SDS011;65200;49.500;8.654;2023-07-24T02:16:33;7.88;;;5.20;;
76377;SDS011;65200;49.500;8.654;2023-07-24T02:19:00;8.82;;;5.95;;
76377;SDS011;65200;49.500;8.654;2023-07-24T02:21:27;7.35;;;5.38;;
76377;SDS011;65200;49.500;8.654;2023-07-24T02:23:52;9.27;;;6.05;;
76377;SDS011;65200;49.500;8.654;2023-07-24T02:26:19;10.98;;;5.97;;
76377;SDS011;65200;49.500;8.654;2023-07-24T02:28:45;8.95;;;5.55;;
76377;SDS011;65200;49.500;8.654;2023-07-24T02:31:12;10.80;;;6.10;;
76377;SDS011;65200;49.500;8.654;2023-07-24T02:33:38;8.05;;;4.88;;
76377;SDS011;65200;49.500;8.654;2023-07-24T02:36:06;8.65;;;5.65;;
76377;SDS011;65200;49.500;8.654;2023-07-24T02:38:32;8.18;;;5.70;;
76377;SDS011;65200;49.500;8.654;2023-07-24T02:40:59;9.18;;;6.43;;
76377;SDS011;65200;49.500;8.654;2023-07-24T02:43:25;8.50;;;5.47;;
76377;SDS011;65200;49.500;8.654;2023-07-24T02:45:52;9.73;;;5.78;;
76377;SDS011;65200;49.500;8.654;2023-07-24T02:48:18;8.65;;;5.75;;
76377;SDS011;65200;49.500;8.654;2023-07-24T02:50:47;9.13;;;5.97;;
76377;SDS011;65200;49.500;8.654;2023-07-24T02:53:15;10.38;;;6.07;;
76377;SDS011;65200;49.500;8.654;2023-07-24T02:55:41;8.00;;;5.63;;
76377;SDS011;65200;49.500;8.654;2023-07-24T02:58:09;7.32;;;5.32;;
76377;SDS011;65200;49.500;8.654;2023-07-24T03:00:36;8.10;;;5.15;;
76377;SDS011;65200;49.500;8.654;2023-07-24T03:03:03;8.35;;;5.70;;
76377;SDS011;65200;49.500;8.654;2023-07-24T03:05:29;7.70;;;5.15;;
76377;SDS011;65200;49.500;8.654;2023-07-24T03:07:56;7.95;;;5.80;;
76377;SDS011;65200;49.500;8.654;2023-07-24T03:10:24;9.13;;;5.50;;
76377;SDS011;65200;49.500;8.654;2023-07-24T03:12:50;10.77;;;5.82;;
76377;SDS011;65200;49.500;8.654;2023-07-24T03:15:16;7.93;;;5.70;;
76377;SDS011;65200;49.500;8.654;2023-07-24T03:17:43;7.80;;;4.97;;
76377;SDS011;65200;49.500;8.654;2023-07-24T03:20:13;9.35;;;5.70;;
76377;SDS011;65200;49.500;8.654;2023-07-24T03:22:41;9.63;;;5.78;;
76377;SDS011;65200;49.500;8.654;2023-07-24T03:25:08;8.60;;;6.10;;
76377;SDS011;65200;49.500;8.654;2023-07-24T03:27:36;7.80;;;5.55;;
76377;SDS011;65200;49.500;8.654;2023-07-24T03:30:03;7.82;;;5.38;;
76377;SDS011;65200;49.500;8.654;2023-07-24T03:32:30;7.88;;;4.82;;
76377;SDS011;65200;49.500;8.654;2023-07-24T03:34:56;7.88;;;5.70;;
76377;SDS011;65200;49.500;8.654;2023-07-24T03:37:23;9.07;;;5.88;;
76377;SDS011;65200;49.500;8.654;2023-07-24T03:39:49;9.25;;;5.93;;
76377;SDS011;65200;49.500;8.654;2023-07-24T03:44:52;6.75;;;4.53;;
76377;SDS011;65200;49.500;8.654;2023-07-24T03:47:19;7.50;;;4.90;;
76377;SDS011;65200;49.500;8.654;2023-07-24T03:49:45;7.82;;;5.20;;
76377;SDS011;65200;49.500;8.654;2023-07-24T03:52:11;9.10;;;5.45;;
76377;SDS011;65200;49.500;8.654;2023-07-24T03:54:38;8.23;;;6.10;;
76377;SDS011;65200;49.500;8.654;2023-07-24T03:57:05;7.88;;;5.18;;
76377;SDS011;65200;49.500;8.654;2023-07-24T03:59:31;7.40;;;5.20;;
76377;SDS011;65200;49.500;8.654;2023-07-24T04:01:59;8.23;;;5.90;;
76377;SDS011;65200;49.500;8.654;2023-07-24T04:04:25;7.97;;;5.35;;
76377;SDS011;65200;49.500;8.654;2023-07-24T04:06:52;10.88;;;6.38;;
76377;SDS011;65200;49.500;8.654;2023-07-24T04:09:18;7.95;;;5.03;;
76377;SDS011;65200;49.500;8.654;2023-07-24T04:11:45;9.23;;;5.70;;
76377;SDS011;65200;49.500;8.654;2023-07-24T04:14:11;7.43;;;4.95;;
76377;SDS011;65200;49.500;8.654;2023-07-24T04:16:38;10.32;;;6.55;;
76377;SDS011;65200;49.500;8.654;2023-07-24T04:19:05;9.40;;;5.68;;
76377;SDS011;65200;49.500;8.654;2023-07-24T04:21:32;8.68;;;5.63;;
76377;SDS011;65200;49.500;8.654;2023-07-24T04:23:58;9.75;;;5.57;;
76377;SDS011;65200;49.500;8.654;2023-07-24T04:26:25;8.63;;;5.93;;
76377;SDS011;65200;49.500;8.654;2023-07-24T04:28:51;11.98;;;5.93;;
76377;SDS011;65200;49.500;8.654;2023-07-24T04:31:17;8.30;;;5.47;;
76377;SDS011;65200;49.500;8.654;2023-07-24T04:33:44;8.35;;;5.05;;
76377;SDS011;65200;49.500;8.654;2023-07-24T04:36:14;9.57;;;5.85;;
76377;SDS011;65200;49.500;8.654;2023-07-24T04:38:40;8.10;;;5.90;;
76377;SDS011;65200;49.500;8.654;2023-07-24T04:41:07;8.50;;;5.93;;
76377;SDS011;65200;49.500;8.654;2023-07-24T04:43:33;8.25;;;5.57;;
76377;SDS011;65200;49.500;8.654;2023-07-24T04:46:00;8.73;;;5.93;;
76377;SDS011;65200;49.500;8.654;2023-07-24T04:48:26;7.95;;;5.43;;
76377;SDS011;65200;49.500;8.654;2023-07-24T04:50:53;9.73;;;5.28;;
76377;SDS011;65200;49.500;8.654;2023-07-24T04:53:22;7.50;;;5.50;;
76377;SDS011;65200;49.500;8.654;2023-07-24T04:55:49;7.97;;;5.28;;
76377;SDS011;65200;49.500;8.654;2023-07-24T04:58:15;9.65;;;5.75;;
76377;SDS011;65200;49.500;8.654;2023-07-24T05:00:42;12.07;;;6.25;;
76377;SDS011;65200;49.500;8.654;2023-07-24T05:03:09;9.82;;;5.38;;
76377;SDS011;65200;49.500;8.654;2023-07-24T05:05:36;9.23;;;5.88;;
76377;SDS011;65200;49.500;8.654;2023-07-24T05:08:03;7.72;;;4.82;;
76377;SDS011;65200;49.500;8.654;2023-07-24T05:13:01;8.98;;;5.03;;
76377;SDS011;65200;49.500;8.654;2023-07-24T05:15:28;8.90;;;5.80;;
76377;SDS011;65200;49.500;8.654;2023-07-24T05:17:55;10.75;;;5.90;;
76377;SDS011;65200;49.500;8.654;2023-07-24T05:20:21;8.00;;;5.80;;
76377;SDS011;65200;49.500;8.654;2023-07-24T05:22:48;10.23;;;6.85;;
76377;SDS011;65200;49.500;8.654;2023-07-24T05:25:14;8.50;;;5.43;;
76377;SDS011;65200;49.500;8.654;2023-07-24T05:27:42;11.65;;;5.68;;
76377;SDS011;65200;49.500;8.654;2023-07-24T05:30:09;8.32;;;5.68;;
76377;SDS011;65200;49.500;8.654;2023-07-24T05:32:36;7.75;;;5.30;;
76377;SDS011;65200;49.500;8.654;2023-07-24T05:35:03;8.13;;;5.95;;
76377;SDS011;65200;49.500;8.654;2023-07-24T05:37:29;9.32;;;5.57;;
76377;SDS011;65200;49.500;8.654;2023-07-24T05:39:56;8.15;;;5.43;;
76377;SDS011;65200;49.500;8.654;2023-07-24T05:42:22;8.43;;;5.50;;
76377;SDS011;65200;49.500;8.654;2023-07-24T05:44:50;8.73;;;4.82;;
76377;SDS011;65200;49.500;8.654;2023-07-24T05:47:16;7.35;;;5.28;;
76377;SDS011;65200;49.500;8.654;2023-07-24T05:49:43;9.20;;;5.88;;
76377;SDS011;65200;49.500;8.654;2023-07-24T05:52:09;8.43;;;5.72;;
76377;SDS011;65200;49.500;8.654;2023-07-24T05:54:36;8.00;;;5.22;;
76377;SDS011;65200;49.500;8.654;2023-07-24T05:57:02;8.60;;;5.20;;
76377;SDS011;65200;49.500;8.654;2023-07-24T05:59:29;9.50;;;5.25;;
76377;SDS011;65200;49.500;8.654;2023-07-24T06:01:57;8.48;;;5.18;;
76377;SDS011;65200;49.500;8.654;2023-07-24T06:04:23;8.25;;;5.68;;
76377;SDS011;65200;49.500;8.654;2023-07-24T06:06:50;7.22;;;4.90;;
76377;SDS011;65200;49.500;8.654;2023-07-24T06:09:16;7.35;;;5.90;;
76377;SDS011;65200;49.500;8.654;2023-07-24T06:11:42;7.70;;;5.50;;
76377;SDS011;65200;49.500;8.654;2023-07-24T06:14:09;9.80;;;5.70;;
76377;SDS011;65200;49.500;8.654;2023-07-24T06:16:35;9.05;;;4.90;;
76377;SDS011;65200;49.500;8.654;2023-07-24T06:19:03;9.43;;;5.90;;
76377;SDS011;65200;49.500;8.654;2023-07-24T06:21:29;9.85;;;5.55;;
76377;SDS011;65200;49.500;8.654;2023-07-24T06:23:56;9.88;;;6.68;;
76377;SDS011;65200;49.500;8.654;2023-07-24T06:26:23;11.98;;;5.45;;
76377;SDS011;65200;49.500;8.654;2023-07-24T06:28:49;7.63;;;4.85;;
76377;SDS011;65200;49.500;8.654;2023-07-24T06:31:16;7.60;;;5.90;;
76377;SDS011;65200;49.500;8.654;2023-07-24T06:33:42;8.02;;;5.38;;
76377;SDS011;65200;49.500;8.654;2023-07-24T06:36:10;11.70;;;5.97;;
76377;SDS011;65200;49.500;8.654;2023-07-24T06:38:37;12.15;;;6.20;;
76377;SDS011;65200;49.500;8.654;2023-07-24T06:41:04;9.30;;;5.60;;
76377;SDS011;65200;49.500;8.654;2023-07-24T06:43:30;9.35;;;6.10;;
76377;SDS011;65200;49.500;8.654;2023-07-24T06:45:57;11.13;;;6.55;;
76377;SDS011;65200;49.500;8.654;2023-07-24T06:48:23;9.65;;;5.78;;
76377;SDS011;65200;49.500;8.654;2023-07-24T06:50:49;7.75;;;5.40;;
76377;SDS011;65200;49.500;8.654;2023-07-24T06:53:17;10.70;;;5.72;;
76377;SDS011;65200;49.500;8.654;2023-07-24T06:55:44;9.88;;;6.50;;
76377;SDS011;65200;49.500;8.654;2023-07-24T06:58:10;10.20;;;6.68;;
76377;SDS011;65200;49.500;8.654;2023-07-24T07:00:36;9.13;;;5.88;;
76377;SDS011;65200;49.500;8.654;2023-07-24T07:03:03;9.27;;;6.03;;
76377;SDS011;65200;49.500;8.654;2023-07-24T07:05:31;9.93;;;6.07;;
76377;SDS011;65200;49.500;8.654;2023-07-24T07:07:57;10.95;;;6.22;;
76377;SDS011;65200;49.500;8.654;2023-07-24T07:10:25;10.18;;;6.05;;
76377;SDS011;65200;49.500;8.654;2023-07-24T07:12:52;10.25;;;6.55;;
76377;SDS011;65200;49.500;8.654;2023-07-24T07:15:18;11.00;;;6.28;;
76377;SDS011;65200;49.500;8.654;2023-07-24T07:17:44;9.93;;;6.75;;
76377;SDS011;65200;49.500;8.654;2023-07-24T07:20:11;11.20;;;6.43;;
76377;SDS011;65200;49.500;8.654;2023-07-24T07:22:37;12.00;;;5.90;;
76377;SDS011;65200;49.500;8.654;2023-07-24T07:25:04;10.50;;;6.80;;
76377;SDS011;65200;49.500;8.654;2023-07-24T07:27:32;14.57;;;5.75;;
76377;SDS011;65200;49.500;8.654;2023-07-24T07:29:58;10.38;;;6.20;;
76377;SDS011;65200;49.500;8.654;2023-07-24T07:32:25;12.35;;;6.50;;
76377;SDS011;65200;49.500;8.654;2023-07-24T07:34:52;9.02;;;6.32;;
76377;SDS011;65200;49.500;8.654;2023-07-24T07:37:18;10.13;;;6.43;;
76377;SDS011;65200;49.500;8.654;2023-07-24T07:39:45;10.20;;;7.43;;
76377;SDS011;65200;49.500;8.654;2023-07-24T07:42:11;12.07;;;5.97;;
76377;SDS011;65200;49.500;8.654;2023-07-24T07:44:39;10.13;;;6.20;;
76377;SDS011;65200;49.500;8.654;2023-07-24T07:47:05;10.95;;;6.63;;
76377;SDS011;65200;49.500;8.654;2023-07-24T07:49:32;14.40;;;6.93;;
76377;SDS011;65200;49.500;8.654;2023-07-24T07:51:58;12.02;;;6.28;;
76377;SDS011;65200;49.500;8.654;2023-07-24T07:54:25;10.40;;;5.95;;
76377;SDS011;65200;49.500;8.654;2023-07-24T07:56:51;12.38;;;6.47;;
76377;SDS011;65200;49.500;8.654;2023-07-24T07:59:18;10.30;;;6.43;;
76377;SDS011;65200;49.500;8.654;2023-07-24T08:01:45;9.70;;;7.07;;
76377;SDS011;65200;49.500;8.654;2023-07-24T08:04:12;9.27;;;6.13;;
76377;SDS011;65200;49.500;8.654;2023-07-24T08:06:38;9.77;;;6.85;;
76377;SDS011;65200;49.500;8.654;2023-07-24T08:09:05;10.38;;;6.18;;
76377;SDS011;65200;49.500;8.654;2023-07-24T08:11:31;11.75;;;6.28;;
76377;SDS011;65200;49.500;8.654;2023-07-24T08:13:58;12.73;;;7.03;;
76377;SDS011;65200;49.500;8.654;2023-07-24T08:16:24;10.05;;;6.60;;
76377;SDS011;65200;49.500;8.654;2023-07-24T08:18:52;9.90;;;6.38;;
76377;SDS011;65200;49.500;8.654;2023-07-24T08:21:18;9.65;;;6.68;;
76377;SDS011;65200;49.500;8.654;2023-07-24T08:23:46;9.95;;;6.05;;
76377;SDS011;65200;49.500;8.654;2023-07-24T08:26:12;10.48;;;5.97;;
76377;SDS011;65200;49.500;8.654;2023-07-24T08:28:38;11.88;;;6.00;;
76377;SDS011;65200;49.500;8.654;2023-07-24T08:31:07;13.20;;;6.25;;
76377;SDS011;65200;49.500;8.654;2023-07-24T08:33:33;11.15;;;6.80;;
76377;SDS011;65200;49.500;8.654;2023-07-24T08:36:02;19.50;;;7.20;;
76377;SDS011;65200;49.500;8.654;2023-07-24T08:38:29;12.93;;;7.13;;
76377;SDS011;65200;49.500;8.654;2023-07-24T08:41:00;12.88;;;6.28;;
76377;SDS011;65200;49.500;8.654;2023-07-24T08:43:30;11.43;;;6.85;;
76377;SDS011;65200;49.500;8.654;2023-07-24T08:45:58;8.60;;;6.28;;
76377;SDS011;65200;49.500;8.654;2023-07-24T08:48:26;8.32;;;5.47;;
76377;SDS011;65200;49.500;8.654;2023-07-24T08:50:52;10.85;;;6.20;;
76377;SDS011;65200;49.500;8.654;2023-07-24T08:53:21;13.57;;;7.60;;
76377;SDS011;65200;49.500;8.654;2023-07-24T08:55:48;10.10;;;6.00;;
76377;SDS011;65200;49.500;8.654;2023-07-24T08:58:14;9.85;;;6.03;;
76377;SDS011;65200;49.500;8.654;2023-07-24T09:00:41;10.15;;;5.88;;
76377;SDS011;65200;49.500;8.654;2023-07-24T09:03:07;11.70;;;6.93;;
76377;SDS011;65200;49.500;8.654;2023-07-24T09:05:34;12.90;;;5.82;;
76377;SDS011;65200;49.500;8.654;2023-07-24T09:08:00;9.82;;;6.00;;
76377;SDS011;65200;49.500;8.654;2023-07-24T09:10:28;10.02;;;6.82;;
76377;SDS011;65200;49.500;8.654;2023-07-24T09:12:54;10.77;;;5.80;;
76377;SDS011;65200;49.500;8.654;2023-07-24T09:15:21;10.23;;;6.32;;
76377;SDS011;65200;49.500;8.654;2023-07-24T09:17:48;12.75;;;5.97;;
76377;SDS011;65200;49.500;8.654;2023-07-24T09:22:47;8.40;;;6.43;;
76377;SDS011;65200;49.500;8.654;2023-07-24T09:25:14;8.73;;;5.78;;
76377;SDS011;65200;49.500;8.654;2023-07-24T09:27:42;12.43;;;5.70;;
76377;SDS011;65200;49.500;8.654;2023-07-24T09:30:11;9.32;;;6.15;;
76377;SDS011;65200;49.500;8.654;2023-07-24T09:32:39;9.15;;;5.57;;
76377;SDS011;65200;49.500;8.654;2023-07-24T09:35:15;8.75;;;6.30;;
76377;SDS011;65200;49.500;8.654;2023-07-24T09:37:42;9.95;;;6.35;;
76377;SDS011;65200;49.500;8.654;2023-07-24T09:40:09;11.45;;;6.85;;
76377;SDS011;65200;49.500;8.654;2023-07-24T09:42:37;8.73;;;6.45;;
76377;SDS011;65200;49.500;8.654;2023-07-24T09:45:07;14.45;;;6.45;;
76377;SDS011;65200;49.500;8.654;2023-07-24T09:47:34;10.52;;;6.00;;
76377;SDS011;65200;49.500;8.654;2023-07-24T09:50:02;11.40;;;5.72;;
76377;SDS011;65200;49.500;8.654;2023-07-24T09:52:30;8.73;;;6.30;;
76377;SDS011;65200;49.500;8.654;2023-07-24T09:54:59;9.52;;;5.82;;
76377;SDS011;65200;49.500;8.654;2023-07-24T09:57:31;10.63;;;6.60;;
76377;SDS011;65200;49.500;8.654;2023-07-24T09:59:58;8.93;;;6.70;;
76377;SDS011;65200;49.500;8.654;2023-07-24T10:02:28;9.10;;;6.80;;
76377;SDS011;65200;49.500;8.654;2023-07-24T10:04:56;10.77;;;5.40;;
76377;SDS011;65200;49.500;8.654;2023-07-24T10:07:22;11.70;;;6.55;;
76377;SDS011;65200;49.500;8.654;2023-07-24T10:09:49;10.77;;;6.43;;
76377;SDS011;65200;49.500;8.654;2023-07-24T10:12:16;9.68;;;6.03;;
76377;SDS011;65200;49.500;8.654;2023-07-24T10:14:44;16.67;;;6.20;;
76377;SDS011;65200;49.500;8.654;2023-07-24T10:17:11;9.90;;;7.05;;
76377;SDS011;65200;49.500;8.654;2023-07-24T10:19:40;10.95;;;6.28;;
76377;SDS011;65200;49.500;8.654;2023-07-24T10:22:08;10.60;;;5.65;;
76377;SDS011;65200;49.500;8.654;2023-07-24T10:27:02;11.40;;;6.75;;
76377;SDS011;65200;49.500;8.654;2023-07-24T10:29:33;10.38;;;5.85;;
76377;SDS011;65200;49.500;8.654;2023-07-24T10:32:00;14.57;;;6.15;;
76377;SDS011;65200;49.500;8.654;2023-07-24T10:34:35;9.32;;;5.43;;
76377;SDS011;65200;49.500;8.654;2023-07-24T10:37:06;8.45;;;5.95;;
76377;SDS011;65200;49.500;8.654;2023-07-24T10:39:37;8.23;;;6.20;;
76377;SDS011;65200;49.500;8.654;2023-07-24T10:42:05;10.32;;;6.35;;
76377;SDS011;65200;49.500;8.654;2023-07-24T10:44:33;9.10;;;5.80;;
76377;SDS011;65200;49.500;8.654;2023-07-24T10:47:00;11.32;;;6.10;;
76377;SDS011;65200;49.500;8.654;2023-07-24T10:49:27;8.00;;;5.72;;
76377;SDS011;65200;49.500;8.654;2023-07-24T10:51:55;6.88;;;5.75;;
76377;SDS011;65200;49.500;8.654;2023-07-24T10:54:23;10.60;;;5.80;;
76377;SDS011;65200;49.500;8.654;2023-07-24T10:56:49;7.75;;;5.68;;
76377;SDS011;65200;49.500;8.654;2023-07-24T10:59:16;9.65;;;4.88;;
76377;SDS011;65200;49.500;8.654;2023-07-24T11:01:42;7.07;;;4.97;;
76377;SDS011;65200;49.500;8.654;2023-07-24T11:04:09;8.02;;;5.47;;
76377;SDS011;65200;49.500;8.654;2023-07-24T11:06:37;8.35;;;5.00;;
76377;SDS011;65200;49.500;8.654;2023-07-24T11:09:04;9.05;;;5.50;;
76377;SDS011;65200;49.500;8.654;2023-07-24T11:11:32;11.13;;;5.25;;
76377;SDS011;65200;49.500;8.654;2023-07-24T11:14:00;8.10;;;5.30;;
76377;SDS011;65200;49.500;8.654;2023-07-24T11:16:27;11.10;;;5.43;;
76377;SDS011;65200;49.500;8.654;2023-07-24T11:18:55;7.47;;;5.25;;
76377;SDS011;65200;49.500;8.654;2023-07-24T11:21:22;8.75;;;6.03;;
76377;SDS011;65200;49.500;8.654;2023-07-24T11:23:49;11.80;;;5.82;;
76377;SDS011;65200;49.500;8.654;2023-07-24T11:26:18;7.20;;;5.53;;
76377;SDS011;65200;49.500;8.654;2023-07-24T11:28:46;9.13;;;5.65;;
76377;SDS011;65200;49.500;8.654;2023-07-24T11:31:13;6.68;;;5.10;;
76377;SDS011;65200;49.500;8.654;2023-07-24T11:33:40;6.07;;;4.95;;
76377;SDS011;65200;49.500;8.654;2023-07-24T11:36:07;8.30;;;5.50;;
76377;SDS011;65200;49.500;8.654;2023-07-24T11:38:34;8.63;;;6.05;;
76377;SDS011;65200;49.500;8.654;2023-07-24T11:41:03;8.07;;;5.95;;
76377;SDS011;65200;49.500;8.654;2023-07-24T11:43:29;7.93;;;5.47;;
76377;SDS011;65200;49.500;8.654;2023-07-24T11:45:57;8.43;;;6.18;;
76377;SDS011;65200;49.500;8.654;2023-07-24T11:48:24;7.43;;;5.32;;
76377;SDS011;65200;49.500;8.654;2023-07-24T11:53:19;8.98;;;5.70;;
76377;SDS011;65200;49.500;8.654;2023-07-24T11:55:47;8.02;;;4.93;;
76377;SDS011;65200;49.500;8.654;2023-07-24T11:58:14;6.90;;;5.28;;
76377;SDS011;65200;49.500;8.654;2023-07-24T12:03:09;6.97;;;4.85;;
76377;SDS011;65200;49.500;8.654;2023-07-24T12:05:38;8.98;;;5.72;;
76377;SDS011;65200;49.500;8.654;2023-07-24T12:08:06;9.27;;;6.13;;
76377;SDS011;65200;49.500;8.654;2023-07-24T12:10:35;9.43;;;6.35;;
76377;SDS011;65200;49.500;8.654;2023-07-24T12:13:02;8.20;;;6.30;;
76377;SDS011;65200;49.500;8.654;2023-07-24T12:15:28;9.85;;;5.55;;
76377;SDS011;65200;49.500;8.654;2023-07-24T12:17:55;8.07;;;4.68;;
76377;SDS011;65200;49.500;8.654;2023-07-24T12:22:50;7.57;;;5.35;;
76377;SDS011;65200;49.500;8.654;2023-07-24T12:25:16;7.80;;;5.60;;
76377;SDS011;65200;49.500;8.654;2023-07-24T12:27:43;9.27;;;6.70;;
76377;SDS011;65200;49.500;8.654;2023-07-24T12:30:09;8.20;;;5.65;;
76377;SDS011;65200;49.500;8.654;2023-07-24T12:32:44;8.50;;;5.97;;
76377;SDS011;65200;49.500;8.654;2023-07-24T12:35:10;8.23;;;5.47;;
76377;SDS011;65200;49.500;8.654;2023-07-24T12:37:37;8.38;;;4.65;;
76377;SDS011;65200;49.500;8.654;2023-07-24T12:40:05;9.70;;;5.22;;
76377;SDS011;65200;49.500;8.654;2023-07-24T12:42:32;8.10;;;5.80;;
76377;SDS011;65200;49.500;8.654;2023-07-24T12:44:59;7.13;;;4.65;;
76377;SDS011;65200;49.500;8.654;2023-07-24T12:47:27;8.18;;;5.38;;
76377;SDS011;65200;49.500;8.654;2023-07-24T12:49:55;7.82;;;4.97;;
76377;SDS011;65200;49.500;8.654;2023-07-24T12:52:22;7.40;;;5.32;;
76377;SDS011;65200;49.500;8.654;2023-07-24T12:54:49;9.80;;;6.03;;
76377;SDS011;65200;49.500;8.654;2023-07-24T12:57:15;7.70;;;5.35;;
76377;SDS011;65200;49.500;8.654;2023-07-24T12:59:42;7.63;;;5.55;;
76377;SDS011;65200;49.500;8.654;2023-07-24T13:02:08;8.18;;;5.63;;
76377;SDS011;65200;49.500;8.654;2023-07-24T13:04:35;8.35;;;5.70;;
76377;SDS011;65200;49.500;8.654;2023-07-24T13:07:03;8.35;;;5.18;;
76377;SDS011;65200;49.500;8.654;2023-07-24T13:09:29;6.78;;;4.68;;
76377;SDS011;65200;49.500;8.654;2023-07-24T13:11:57;9.30;;;5.32;;
76377;SDS011;65200;49.500;8.654;2023-07-24T13:14:23;8.50;;;4.85;;
76377;SDS011;65200;49.500;8.654;2023-07-24T13:16:50;7.63;;;5.15;;
76377;SDS011;65200;49.500;8.654;2023-07-24T13:19:16;10.65;;;5.65;;
76377;SDS011;65200;49.500;8.654;2023-07-24T13:21:43;8.57;;;5.05;;
76377;SDS011;65200;49.500;8.654;2023-07-24T13:24:13;8.75;;;5.10;;
76377;SDS011;65200;49.500;8.654;2023-07-24T13:26:43;7.57;;;4.68;;
76377;SDS011;65200;49.500;8.654;2023-07-24T13:29:10;7.82;;;4.45;;
76377;SDS011;65200;49.500;8.654;2023-07-24T13:31:36;7.53;;;5.07;;
76377;SDS011;65200;49.500;8.654;2023-07-24T13:34:05;7.40;;;4.50;;
76377;SDS011;65200;49.500;8.654;2023-07-24T13:36:32;7.53;;;4.97;;
76377;SDS011;65200;49.500;8.654;2023-07-24T13:38:58;6.78;;;4.78;;
76377;SDS011;65200;49.500;8.654;2023-07-24T13:41:26;7.75;;;5.22;;
76377;SDS011;65200;49.500;8.654;2023-07-24T13:43:53;7.35;;;4.82;;
76377;SDS011;65200;49.500;8.654;2023-07-24T13:46:19;7.63;;;5.43;;
76377;SDS011;65200;49.500;8.654;2023-07-24T13:48:46;7.60;;;4.50;;
76377;SDS011;65200;49.500;8.654;2023-07-24T13:51:12;8.30;;;5.43;;
76377;SDS011;65200;49.500;8.654;2023-07-24T13:53:38;7.07;;;4.47;;
76377;SDS011;65200;49.500;8.654;2023-07-24T13:56:05;7.93;;;4.93;;
76377;SDS011;65200;49.500;8.654;2023-07-24T13:58:33;8.00;;;4.97;;
76377;SDS011;65200;49.500;8.654;2023-07-24T14:01:00;8.93;;;5.00;;
76377;SDS011;65200;49.500;8.654;2023-07-24T14:03:27;8.30;;;4.80;;
76377;SDS011;65200;49.500;8.654;2023-07-24T14:05:54;8.45;;;5.20;;
76377;SDS011;65200;49.500;8.654;2023-07-24T14:08:21;7.07;;;5.00;;
76377;SDS011;65200;49.500;8.654;2023-07-24T14:10:48;8.13;;;5.45;;
76377;SDS011;65200;49.500;8.654;2023-07-24T14:13:16;7.00;;;4.70;;
76377;SDS011;65200;49.500;8.654;2023-07-24T14:15:43;7.80;;;5.10;;
76377;SDS011;65200;49.500;8.654;2023-07-24T14:18:10;7.40;;;4.60;;
76377;SDS011;65200;49.500;8.654;2023-07-24T14:20:36;7.68;;;4.45;;
76377;SDS011;65200;49.500;8.654;2023-07-24T14:23:05;9.80;;;4.53;;
76377;SDS011;65200;49.500;8.654;2023-07-24T14:25:31;8.85;;;5.10;;
76377;SDS011;65200;49.500;8.654;2023-07-24T14:27:58;9.88;;;5.35;;
76377;SDS011;65200;49.500;8.654;2023-07-24T14:30:24;10.30;;;4.70;;
76377;SDS011;65200;49.500;8.654;2023-07-24T14:32:52;8.02;;;5.45;;
76377;SDS011;65200;49.500;8.654;2023-07-24T14:35:19;8.63;;;5.80;;
76377;SDS011;65200;49.500;8.654;2023-07-24T14:37:45;8.90;;;5.32;;
76377;SDS011;65200;49.500;8.654;2023-07-24T14:40:12;11.07;;;5.63;;
76377;SDS011;65200;49.500;8.654;2023-07-24T14:42:38;9.68;;;5.78;;
76377;SDS011;65200;49.500;8.654;2023-07-24T14:50:00;9.98;;;6.18;;
76377;SDS011;65200;49.500;8.654;2023-07-24T14:52:27;11.43;;;5.95;;
76377;SDS011;65200;49.500;8.654;2023-07-24T14:54:53;13.60;;;6.68;;
76377;SDS011;65200;49.500;8.654;2023-07-24T14:57:19;10.30;;;6.40;;
76377;SDS011;65200;49.500;8.654;2023-07-24T14:59:46;11.98;;;5.63;;
76377;SDS011;65200;49.500;8.654;2023-07-24T15:02:12;12.07;;;6.82;;
76377;SDS011;65200;49.500;8.654;2023-07-24T15:04:39;10.85;;;6.07;;
76377;SDS011;65200;49.500;8.654;2023-07-24T15:07:07;9.95;;;6.00;;
76377;SDS011;65200;49.500;8.654;2023-07-24T15:09:33;10.27;;;6.18;;
76377;SDS011;65200;49.500;8.654;2023-07-24T15:12:00;9.02;;;5.82;;